sensor_id;sensor_type;location;lat;lon;timestamp;pressure;altitude;pressure_sealevel;temperature
5571;BMP180;2808;51.240;6.794;2024-02-21T00:00:37;101869.00;;;9.60
5571;BMP180;2808;51.240;6.794;2024-02-21T00:03:06;101870.00;;;9.60
5571;BMP180;2808;51.240;6.794;2024-02-21T00:05:34;101861.00;;;9.50
5571;BMP180;2808;51.240;6.794;2024-02-21T00:08:01;101864.00;;;9.50
5571;BMP180;2808;51.240;6.794;2024-02-21T00:10:29;101852.00;;;9.50
5571;BMP180;2808;51.240;6.794;2024-02-21T00:12:59;101850.00;;;9.50
5571;BMP180;2808;51.240;6.794;2024-02-21T00:15:27;101848.00;;;9.50
5571;BMP180;2808;51.240;6.794;2024-02-21T00:17:56;101854.00;;;9.50
5571;BMP180;2808;51.240;6.794;2024-02-21T00:20:27;101846.00;;;9.50
5571;BMP180;2808;51.240;6.794;2024-02-21T00:22:54;101839.00;;;9.60
5571;BMP180;2808;51.240;6.794;2024-02-21T00:25:22;101833.00;;;9.50
5571;BMP180;2808;51.240;6.794;2024-02-21T00:27:49;101835.00;;;9.50
5571;BMP180;2808;51.240;6.794;2024-02-21T00:30:18;101840.00;;;9.50
5571;BMP180;2808;51.240;6.794;2024-02-21T00:32:45;101831.00;;;9.50
5571;BMP180;2808;51.240;6.794;2024-02-21T00:35:13;101817.00;;;9.50
5571;BMP180;2808;51.240;6.794;2024-02-21T00:37:40;101820.00;;;9.50
5571;BMP180;2808;51.240;6.794;2024-02-21T00:40:11;101803.00;;;9.50
5571;BMP180;2808;51.240;6.794;2024-02-21T00:42:38;101813.00;;;9.50
5571;BMP180;2808;51.240;6.794;2024-02-21T00:45:07;101813.00;;;9.60
5571;BMP180;2808;51.240;6.794;2024-02-21T00:47:35;101813.00;;;9.60
5571;BMP180;2808;51.240;6.794;2024-02-21T00:50:03;101818.00;;;9.60
5571;BMP180;2808;51.240;6.794;2024-02-21T00:52:37;101808.00;;;9.60
5571;BMP180;2808;51.240;6.794;2024-02-21T00:55:10;101812.00;;;9.60
5571;BMP180;2808;51.240;6.794;2024-02-21T00:57:37;101814.00;;;9.60
5571;BMP180;2808;51.240;6.794;2024-02-21T01:00:06;101805.00;;;9.50
5571;BMP180;2808;51.240;6.794;2024-02-21T01:02:35;101796.00;;;9.50
5571;BMP180;2808;51.240;6.794;2024-02-21T01:05:03;101808.00;;;9.50
5571;BMP180;2808;51.240;6.794;2024-02-21T01:07:30;101809.00;;;9.50
5571;BMP180;2808;51.240;6.794;2024-02-21T01:09:58;101797.00;;;9.50
5571;BMP180;2808;51.240;6.794;2024-02-21T01:12:27;101801.00;;;9.50
5571;BMP180;2808;51.240;6.794;2024-02-21T01:14:54;101797.00;;;9.50
5571;BMP180;2808;51.240;6.794;2024-02-21T01:17:21;101792.00;;;9.50
5571;BMP180;2808;51.240;6.794;2024-02-21T01:19:50;101786.00;;;9.50
5571;BMP180;2808;51.240;6.794;2024-02-21T01:22:17;101780.00;;;9.50
5571;BMP180;2808;51.240;6.794;2024-02-21T01:24:45;101765.00;;;9.50
5571;BMP180;2808;51.240;6.794;2024-02-21T01:27:12;101771.00;;;9.50
5571;BMP180;2808;51.240;6.794;2024-02-21T01:29:56;101774.00;;;9.50
5571;BMP180;2808;51.240;6.794;2024-02-21T01:32:23;101766.00;;;9.50
5571;BMP180;2808;51.240;6.794;2024-02-21T01:34:52;101766.00;;;9.50
5571;BMP180;2808;51.240;6.794;2024-02-21T01:37:20;101750.00;;;9.50
5571;BMP180;2808;51.240;6.794;2024-02-21T01:39:47;101747.00;;;9.50
5571;BMP180;2808;51.240;6.794;2024-02-21T01:42:15;101737.00;;;9.50
5571;BMP180;2808;51.240;6.794;2024-02-21T01:44:42;101738.00;;;9.50
5571;BMP180;2808;51.240;6.794;2024-02-21T01:47:12;101738.00;;;9.50
5571;BMP180;2808;51.240;6.794;2024-02-21T01:49:41;101743.00;;;9.40
5571;BMP180;2808;51.240;6.794;2024-02-21T01:52:14;101736.00;;;9.40
5571;BMP180;2808;51.240;6.794;2024-02-21T01:54:43;101737.00;;;9.50
5571;BMP180;2808;51.240;6.794;2024-02-21T01:57:11;101734.00;;;9.50
5571;BMP180;2808;51.240;6.794;2024-02-21T01:59:39;101734.00;;;9.50
5571;BMP180;2808;51.240;6.794;2024-02-21T02:02:06;101727.00;;;9.50
5571;BMP180;2808;51.240;6.794;2024-02-21T02:04:35;101721.00;;;9.50
5571;BMP180;2808;51.240;6.794;2024-02-21T02:07:03;101711.00;;;9.50
5571;BMP180;2808;51.240;6.794;2024-02-21T02:09:32;101699.00;;;9.50
5571;BMP180;2808;51.240;6.794;2024-02-21T02:12:01;101696.00;;;9.50
5571;BMP180;2808;51.240;6.794;2024-02-21T02:14:29;101701.00;;;9.50
5571;BMP180;2808;51.240;6.794;2024-02-21T02:16:56;101687.00;;;9.50
5571;BMP180;2808;51.240;6.794;2024-02-21T02:19:23;101682.00;;;9.50
5571;BMP180;2808;51.240;6.794;2024-02-21T02:21:53;101682.00;;;9.50
5571;BMP180;2808;51.240;6.794;2024-02-21T02:24:25;101676.00;;;9.50
5571;BMP180;2808;51.240;6.794;2024-02-21T02:26:55;101678.00;;;9.40
5571;BMP180;2808;51.240;6.794;2024-02-21T02:29:23;101676.00;;;9.40
5571;BMP180;2808;51.240;6.794;2024-02-21T02:31:50;101668.00;;;9.40
5571;BMP180;2808;51.240;6.794;2024-02-21T02:34:18;101658.00;;;9.40
5571;BMP180;2808;51.240;6.794;2024-02-21T02:36:45;101668.00;;;9.40
5571;BMP180;2808;51.240;6.794;2024-02-21T02:39:14;101671.00;;;9.40
5571;BMP180;2808;51.240;6.794;2024-02-21T02:41:43;101674.00;;;9.40
5571;BMP180;2808;51.240;6.794;2024-02-21T02:44:11;101672.00;;;9.40
5571;BMP180;2808;51.240;6.794;2024-02-21T02:46:40;101671.00;;;9.40
5571;BMP180;2808;51.240;6.794;2024-02-21T02:49:08;101671.00;;;9.40
5571;BMP180;2808;51.240;6.794;2024-02-21T02:51:36;101666.00;;;9.40
5571;BMP180;2808;51.240;6.794;2024-02-21T02:54:03;101672.00;;;9.40
5571;BMP180;2808;51.240;6.794;2024-02-21T02:56:30;101662.00;;;9.40
5571;BMP180;2808;51.240;6.794;2024-02-21T02:58:59;101659.00;;;9.40
5571;BMP180;2808;51.240;6.794;2024-02-21T03:01:27;101659.00;;;9.40
5571;BMP180;2808;51.240;6.794;2024-02-21T03:03:54;101644.00;;;9.40
5571;BMP180;2808;51.240;6.794;2024-02-21T03:06:22;101627.00;;;9.40
5571;BMP180;2808;51.240;6.794;2024-02-21T03:08:49;101625.00;;;9.40
5571;BMP180;2808;51.240;6.794;2024-02-21T03:11:20;101628.00;;;9.40
5571;BMP180;2808;51.240;6.794;2024-02-21T03:13:54;101629.00;;;9.40
5571;BMP180;2808;51.240;6.794;2024-02-21T03:16:24;101627.00;;;9.40
5571;BMP180;2808;51.240;6.794;2024-02-21T03:18:51;101624.00;;;9.40
5571;BMP180;2808;51.240;6.794;2024-02-21T03:21:20;101618.00;;;9.40
5571;BMP180;2808;51.240;6.794;2024-02-21T03:23:48;101607.00;;;9.40
5571;BMP180;2808;51.240;6.794;2024-02-21T03:26:16;101603.00;;;9.40
5571;BMP180;2808;51.240;6.794;2024-02-21T03:28:43;101600.00;;;9.40
5571;BMP180;2808;51.240;6.794;2024-02-21T03:31:12;101604.00;;;9.40
5571;BMP180;2808;51.240;6.794;2024-02-21T03:33:42;101607.00;;;9.40
5571;BMP180;2808;51.240;6.794;2024-02-21T03:36:14;101604.00;;;9.40
5571;BMP180;2808;51.240;6.794;2024-02-21T03:38:41;101607.00;;;9.40
5571;BMP180;2808;51.240;6.794;2024-02-21T03:41:09;101600.00;;;9.40
5571;BMP180;2808;51.240;6.794;2024-02-21T03:43:38;101600.00;;;9.40
5571;BMP180;2808;51.240;6.794;2024-02-21T03:46:06;101607.00;;;9.40
5571;BMP180;2808;51.240;6.794;2024-02-21T03:48:33;101621.00;;;9.40
5571;BMP180;2808;51.240;6.794;2024-02-21T03:51:02;101613.00;;;9.40
5571;BMP180;2808;51.240;6.794;2024-02-21T03:53:30;101600.00;;;9.40
5571;BMP180;2808;51.240;6.794;2024-02-21T03:56:00;101590.00;;;9.40
5571;BMP180;2808;51.240;6.794;2024-02-21T03:58:30;101607.00;;;9.40
5571;BMP180;2808;51.240;6.794;2024-02-21T04:00:59;101606.00;;;9.40
5571;BMP180;2808;51.240;6.794;2024-02-21T04:03:27;101603.00;;;9.40
5571;BMP180;2808;51.240;6.794;2024-02-21T04:05:54;101595.00;;;9.40
5571;BMP180;2808;51.240;6.794;2024-02-21T04:08:23;101602.00;;;9.40
5571;BMP180;2808;51.240;6.794;2024-02-21T04:10:51;101592.00;;;9.40
5571;BMP180;2808;51.240;6.794;2024-02-21T04:13:18;101604.00;;;9.40
5571;BMP180;2808;51.240;6.794;2024-02-21T04:15:45;101591.00;;;9.40
5571;BMP180;2808;51.240;6.794;2024-02-21T04:18:13;101591.00;;;9.40
5571;BMP180;2808;51.240;6.794;2024-02-21T04:20:41;101591.00;;;9.30
5571;BMP180;2808;51.240;6.794;2024-02-21T04:23:08;101588.00;;;9.40
5571;BMP180;2808;51.240;6.794;2024-02-21T04:25:37;101581.00;;;9.40
5571;BMP180;2808;51.240;6.794;2024-02-21T04:28:05;101587.00;;;9.40
5571;BMP180;2808;51.240;6.794;2024-02-21T04:30:33;101589.00;;;9.30
5571;BMP180;2808;51.240;6.794;2024-02-21T04:33:00;101584.00;;;9.30
5571;BMP180;2808;51.240;6.794;2024-02-21T04:35:27;101591.00;;;9.30
5571;BMP180;2808;51.240;6.794;2024-02-21T04:37:56;101586.00;;;9.30
5571;BMP180;2808;51.240;6.794;2024-02-21T04:40:23;101587.00;;;9.40
5571;BMP180;2808;51.240;6.794;2024-02-21T04:42:52;101591.00;;;9.40
5571;BMP180;2808;51.240;6.794;2024-02-21T04:45:19;101593.00;;;9.40
5571;BMP180;2808;51.240;6.794;2024-02-21T04:47:47;101595.00;;;9.40
5571;BMP180;2808;51.240;6.794;2024-02-21T04:50:14;101581.00;;;9.40
5571;BMP180;2808;51.240;6.794;2024-02-21T04:52:45;101579.00;;;9.30
5571;BMP180;2808;51.240;6.794;2024-02-21T04:55:12;101576.00;;;9.40
5571;BMP180;2808;51.240;6.794;2024-02-21T04:57:40;101583.00;;;9.40
5571;BMP180;2808;51.240;6.794;2024-02-21T05:00:09;101586.00;;;9.40
5571;BMP180;2808;51.240;6.794;2024-02-21T05:02:38;101577.00;;;9.30
5571;BMP180;2808;51.240;6.794;2024-02-21T05:05:05;101569.00;;;9.30
5571;BMP180;2808;51.240;6.794;2024-02-21T05:07:34;101567.00;;;9.30
5571;BMP180;2808;51.240;6.794;2024-02-21T05:10:02;101574.00;;;9.30
5571;BMP180;2808;51.240;6.794;2024-02-21T05:12:29;101588.00;;;9.30
5571;BMP180;2808;51.240;6.794;2024-02-21T05:14:57;101575.00;;;9.30
5571;BMP180;2808;51.240;6.794;2024-02-21T05:17:26;101573.00;;;9.40
5571;BMP180;2808;51.240;6.794;2024-02-21T05:19:55;101571.00;;;9.40
5571;BMP180;2808;51.240;6.794;2024-02-21T05:22:23;101571.00;;;9.40
5571;BMP180;2808;51.240;6.794;2024-02-21T05:24:50;101559.00;;;9.40
5571;BMP180;2808;51.240;6.794;2024-02-21T05:27:18;101564.00;;;9.30
5571;BMP180;2808;51.240;6.794;2024-02-21T05:29:45;101563.00;;;9.40
5571;BMP180;2808;51.240;6.794;2024-02-21T05:32:14;101554.00;;;9.40
5571;BMP180;2808;51.240;6.794;2024-02-21T05:34:43;101547.00;;;9.40
5571;BMP180;2808;51.240;6.794;2024-02-21T05:37:11;101542.00;;;9.30
5571;BMP180;2808;51.240;6.794;2024-02-21T05:39:38;101549.00;;;9.30
5571;BMP180;2808;51.240;6.794;2024-02-21T05:42:06;101550.00;;;9.30
5571;BMP180;2808;51.240;6.794;2024-02-21T05:44:34;101553.00;;;9.30
5571;BMP180;2808;51.240;6.794;2024-02-21T05:47:01;101554.00;;;9.30
5571;BMP180;2808;51.240;6.794;2024-02-21T05:49:29;101549.00;;;9.30
5571;BMP180;2808;51.240;6.794;2024-02-21T05:51:58;101554.00;;;9.30
5571;BMP180;2808;51.240;6.794;2024-02-21T05:54:25;101555.00;;;9.30
5571;BMP180;2808;51.240;6.794;2024-02-21T05:56:53;101542.00;;;9.30
5571;BMP180;2808;51.240;6.794;2024-02-21T05:59:20;101542.00;;;9.30
5571;BMP180;2808;51.240;6.794;2024-02-21T06:01:55;101535.00;;;9.30
5571;BMP180;2808;51.240;6.794;2024-02-21T06:04:24;101533.00;;;9.30
5571;BMP180;2808;51.240;6.794;2024-02-21T06:06:51;101528.00;;;9.30
5571;BMP180;2808;51.240;6.794;2024-02-21T06:09:20;101518.00;;;9.30
5571;BMP180;2808;51.240;6.794;2024-02-21T06:11:48;101522.00;;;9.30
5571;BMP180;2808;51.240;6.794;2024-02-21T06:14:15;101513.00;;;9.30
5571;BMP180;2808;51.240;6.794;2024-02-21T06:16:44;101503.00;;;9.30
5571;BMP180;2808;51.240;6.794;2024-02-21T06:19:11;101512.00;;;9.30
5571;BMP180;2808;51.240;6.794;2024-02-21T06:21:39;101512.00;;;9.30
5571;BMP180;2808;51.240;6.794;2024-02-21T06:24:07;101508.00;;;9.30
5571;BMP180;2808;51.240;6.794;2024-02-21T06:26:36;101498.00;;;9.30
5571;BMP180;2808;51.240;6.794;2024-02-21T06:29:03;101499.00;;;9.30
5571;BMP180;2808;51.240;6.794;2024-02-21T06:31:34;101497.00;;;9.30
5571;BMP180;2808;51.240;6.794;2024-02-21T06:34:02;101489.00;;;9.30
5571;BMP180;2808;51.240;6.794;2024-02-21T06:36:30;101487.00;;;9.40
5571;BMP180;2808;51.240;6.794;2024-02-21T06:38:58;101484.00;;;9.30
5571;BMP180;2808;51.240;6.794;2024-02-21T06:41:26;101482.00;;;9.30
5571;BMP180;2808;51.240;6.794;2024-02-21T06:43:57;101487.00;;;9.30
5571;BMP180;2808;51.240;6.794;2024-02-21T06:46:25;101480.00;;;9.40
5571;BMP180;2808;51.240;6.794;2024-02-21T06:49:03;101468.00;;;9.40
5571;BMP180;2808;51.240;6.794;2024-02-21T06:51:33;101472.00;;;9.30
5571;BMP180;2808;51.240;6.794;2024-02-21T06:54:03;101467.00;;;9.30
5571;BMP180;2808;51.240;6.794;2024-02-21T06:56:30;101465.00;;;9.30
5571;BMP180;2808;51.240;6.794;2024-02-21T06:58:59;101467.00;;;9.30
5571;BMP180;2808;51.240;6.794;2024-02-21T07:01:27;101468.00;;;9.30
5571;BMP180;2808;51.240;6.794;2024-02-21T07:03:54;101462.00;;;9.40
5571;BMP180;2808;51.240;6.794;2024-02-21T07:06:22;101460.00;;;9.40
5571;BMP180;2808;51.240;6.794;2024-02-21T07:08:50;101465.00;;;9.40
5571;BMP180;2808;51.240;6.794;2024-02-21T07:11:17;101465.00;;;9.30
5571;BMP180;2808;51.240;6.794;2024-02-21T07:13:45;101475.00;;;9.30
5571;BMP180;2808;51.240;6.794;2024-02-21T07:16:14;101468.00;;;9.40
5571;BMP180;2808;51.240;6.794;2024-02-21T07:18:42;101467.00;;;9.40
5571;BMP180;2808;51.240;6.794;2024-02-21T07:21:11;101468.00;;;9.40
5571;BMP180;2808;51.240;6.794;2024-02-21T07:23:42;101456.00;;;9.40
5571;BMP180;2808;51.240;6.794;2024-02-21T07:26:12;101463.00;;;9.40
5571;BMP180;2808;51.240;6.794;2024-02-21T07:28:41;101464.00;;;9.50
5571;BMP180;2808;51.240;6.794;2024-02-21T07:31:14;101468.00;;;9.50
5571;BMP180;2808;51.240;6.794;2024-02-21T07:33:41;101471.00;;;9.60
5571;BMP180;2808;51.240;6.794;2024-02-21T07:36:11;101462.00;;;9.60
5571;BMP180;2808;51.240;6.794;2024-02-21T07:38:40;101459.00;;;9.60
5571;BMP180;2808;51.240;6.794;2024-02-21T07:41:11;101464.00;;;9.60
5571;BMP180;2808;51.240;6.794;2024-02-21T07:43:41;101463.00;;;9.60
5571;BMP180;2808;51.240;6.794;2024-02-21T07:46:13;101459.00;;;9.60
5571;BMP180;2808;51.240;6.794;2024-02-21T07:48:45;101457.00;;;9.50
5571;BMP180;2808;51.240;6.794;2024-02-21T07:51:13;101456.00;;;9.40
5571;BMP180;2808;51.240;6.794;2024-02-21T07:53:42;101452.00;;;9.40
5571;BMP180;2808;51.240;6.794;2024-02-21T07:56:12;101447.00;;;9.40
5571;BMP180;2808;51.240;6.794;2024-02-21T07:58:41;101441.00;;;9.40
5571;BMP180;2808;51.240;6.794;2024-02-21T08:01:08;101434.00;;;9.40
5571;BMP180;2808;51.240;6.794;2024-02-21T08:03:42;101439.00;;;9.40
5571;BMP180;2808;51.240;6.794;2024-02-21T08:06:18;101434.00;;;9.40
5571;BMP180;2808;51.240;6.794;2024-02-21T08:08:52;101431.00;;;9.40
5571;BMP180;2808;51.240;6.794;2024-02-21T08:11:19;101424.00;;;9.40
5571;BMP180;2808;51.240;6.794;2024-02-21T08:13:47;101425.00;;;9.40
5571;BMP180;2808;51.240;6.794;2024-02-21T08:16:15;101410.00;;;9.40
5571;BMP180;2808;51.240;6.794;2024-02-21T08:18:45;101408.00;;;9.40
5571;BMP180;2808;51.240;6.794;2024-02-21T08:21:13;101406.00;;;9.40
5571;BMP180;2808;51.240;6.794;2024-02-21T08:23:43;101411.00;;;9.40
5571;BMP180;2808;51.240;6.794;2024-02-21T08:26:13;101390.00;;;9.40
5571;BMP180;2808;51.240;6.794;2024-02-21T08:28:41;101389.00;;;9.40
5571;BMP180;2808;51.240;6.794;2024-02-21T08:31:19;101391.00;;;9.40
5571;BMP180;2808;51.240;6.794;2024-02-21T08:33:50;101377.00;;;9.30
5571;BMP180;2808;51.240;6.794;2024-02-21T08:36:20;101383.00;;;9.30
5571;BMP180;2808;51.240;6.794;2024-02-21T08:38:52;101380.00;;;9.30
5571;BMP180;2808;51.240;6.794;2024-02-21T08:41:20;101388.00;;;9.40
5571;BMP180;2808;51.240;6.794;2024-02-21T08:43:50;101376.00;;;9.40
5571;BMP180;2808;51.240;6.794;2024-02-21T08:46:20;101373.00;;;9.40
5571;BMP180;2808;51.240;6.794;2024-02-21T08:48:56;101371.00;;;9.30
5571;BMP180;2808;51.240;6.794;2024-02-21T08:51:37;101369.00;;;9.40
5571;BMP180;2808;51.240;6.794;2024-02-21T08:54:07;101372.00;;;9.40
5571;BMP180;2808;51.240;6.794;2024-02-21T08:56:34;101359.00;;;9.40
5571;BMP180;2808;51.240;6.794;2024-02-21T08:59:04;101355.00;;;9.40
5571;BMP180;2808;51.240;6.794;2024-02-21T09:01:34;101347.00;;;9.40
5571;BMP180;2808;51.240;6.794;2024-02-21T09:04:03;101348.00;;;9.40
5571;BMP180;2808;51.240;6.794;2024-02-21T09:06:31;101345.00;;;9.40
5571;BMP180;2808;51.240;6.794;2024-02-21T09:08:59;101338.00;;;9.30
5571;BMP180;2808;51.240;6.794;2024-02-21T09:11:27;101338.00;;;9.30
5571;BMP180;2808;51.240;6.794;2024-02-21T09:14:00;101332.00;;;9.30
5571;BMP180;2808;51.240;6.794;2024-02-21T09:16:30;101318.00;;;9.40
5571;BMP180;2808;51.240;6.794;2024-02-21T09:18:57;101311.00;;;9.40
5571;BMP180;2808;51.240;6.794;2024-02-21T09:21:26;101324.00;;;9.50
5571;BMP180;2808;51.240;6.794;2024-02-21T09:23:54;101331.00;;;9.60
5571;BMP180;2808;51.240;6.794;2024-02-21T09:26:21;101320.00;;;9.70
5571;BMP180;2808;51.240;6.794;2024-02-21T09:28:49;101302.00;;;9.70
5571;BMP180;2808;51.240;6.794;2024-02-21T09:31:17;101309.00;;;9.70
5571;BMP180;2808;51.240;6.794;2024-02-21T09:33:45;101309.00;;;9.70
5571;BMP180;2808;51.240;6.794;2024-02-21T09:36:13;101293.00;;;9.80
5571;BMP180;2808;51.240;6.794;2024-02-21T09:38:43;101287.00;;;9.80
5571;BMP180;2808;51.240;6.794;2024-02-21T09:41:16;101283.00;;;9.80
5571;BMP180;2808;51.240;6.794;2024-02-21T09:43:45;101292.00;;;9.80
5571;BMP180;2808;51.240;6.794;2024-02-21T09:46:17;101285.00;;;9.80
5571;BMP180;2808;51.240;6.794;2024-02-21T09:48:58;101284.00;;;9.80
5571;BMP180;2808;51.240;6.794;2024-02-21T09:51:33;101286.00;;;9.90
5571;BMP180;2808;51.240;6.794;2024-02-21T09:54:03;101284.00;;;9.80
5571;BMP180;2808;51.240;6.794;2024-02-21T09:56:31;101293.00;;;9.80
5571;BMP180;2808;51.240;6.794;2024-02-21T09:58:59;101278.00;;;9.80
5571;BMP180;2808;51.240;6.794;2024-02-21T10:01:29;101277.00;;;9.80
5571;BMP180;2808;51.240;6.794;2024-02-21T10:03:57;101276.00;;;9.90
5571;BMP180;2808;51.240;6.794;2024-02-21T10:06:43;101275.00;;;9.90
5571;BMP180;2808;51.240;6.794;2024-02-21T10:09:21;101278.00;;;10.00
5571;BMP180;2808;51.240;6.794;2024-02-21T10:11:49;101275.00;;;10.00
5571;BMP180;2808;51.240;6.794;2024-02-21T10:14:16;101268.00;;;10.00
5571;BMP180;2808;51.240;6.794;2024-02-21T10:16:44;101263.00;;;10.10
5571;BMP180;2808;51.240;6.794;2024-02-21T10:19:21;101263.00;;;10.10
5571;BMP180;2808;51.240;6.794;2024-02-21T10:22:02;101264.00;;;10.20
5571;BMP180;2808;51.240;6.794;2024-02-21T10:24:32;101265.00;;;10.10
5571;BMP180;2808;51.240;6.794;2024-02-21T10:27:04;101248.00;;;10.10
5571;BMP180;2808;51.240;6.794;2024-02-21T10:29:34;101257.00;;;10.10
5571;BMP180;2808;51.240;6.794;2024-02-21T10:32:09;101242.00;;;10.10
5571;BMP180;2808;51.240;6.794;2024-02-21T10:34:39;101237.00;;;10.10
5571;BMP180;2808;51.240;6.794;2024-02-21T10:37:08;101231.00;;;10.10
5571;BMP180;2808;51.240;6.794;2024-02-21T10:39:39;101230.00;;;10.10
5571;BMP180;2808;51.240;6.794;2024-02-21T10:42:07;101218.00;;;10.20
5571;BMP180;2808;51.240;6.794;2024-02-21T10:44:38;101208.00;;;10.20
5571;BMP180;2808;51.240;6.794;2024-02-21T10:47:09;101199.00;;;10.30
5571;BMP180;2808;51.240;6.794;2024-02-21T10:49:39;101209.00;;;10.30
5571;BMP180;2808;51.240;6.794;2024-02-21T10:52:13;101181.00;;;10.40
5571;BMP180;2808;51.240;6.794;2024-02-21T10:54:52;101188.00;;;10.30
5571;BMP180;2808;51.240;6.794;2024-02-21T10:57:23;101192.00;;;10.30
5571;BMP180;2808;51.240;6.794;2024-02-21T10:59:51;101174.00;;;10.40
5571;BMP180;2808;51.240;6.794;2024-02-21T11:02:20;101167.00;;;10.40
5571;BMP180;2808;51.240;6.794;2024-02-21T11:04:48;101168.00;;;10.50
5571;BMP180;2808;51.240;6.794;2024-02-21T11:07:19;101158.00;;;10.50
5571;BMP180;2808;51.240;6.794;2024-02-21T11:09:53;101153.00;;;10.60
5571;BMP180;2808;51.240;6.794;2024-02-21T11:12:21;101141.00;;;10.70
5571;BMP180;2808;51.240;6.794;2024-02-21T11:14:49;101134.00;;;10.80
5571;BMP180;2808;51.240;6.794;2024-02-21T11:17:17;101117.00;;;10.80
5571;BMP180;2808;51.240;6.794;2024-02-21T11:19:45;101110.00;;;10.80
5571;BMP180;2808;51.240;6.794;2024-02-21T11:22:18;101100.00;;;10.90
5571;BMP180;2808;51.240;6.794;2024-02-21T11:24:46;101091.00;;;11.00
5571;BMP180;2808;51.240;6.794;2024-02-21T11:27:16;101090.00;;;11.00
5571;BMP180;2808;51.240;6.794;2024-02-21T11:29:46;101069.00;;;11.00
5571;BMP180;2808;51.240;6.794;2024-02-21T11:32:15;101064.00;;;11.10
5571;BMP180;2808;51.240;6.794;2024-02-21T11:34:54;101053.00;;;11.10
5571;BMP180;2808;51.240;6.794;2024-02-21T11:37:25;101039.00;;;11.10
5571;BMP180;2808;51.240;6.794;2024-02-21T11:39:54;101029.00;;;11.10
5571;BMP180;2808;51.240;6.794;2024-02-21T11:42:24;101032.00;;;11.00
5571;BMP180;2808;51.240;6.794;2024-02-21T11:44:55;101017.00;;;11.00
5571;BMP180;2808;51.240;6.794;2024-02-21T11:47:24;101014.00;;;11.00
5571;BMP180;2808;51.240;6.794;2024-02-21T11:49:52;100999.00;;;11.10
5571;BMP180;2808;51.240;6.794;2024-02-21T11:52:22;101009.00;;;11.30
5571;BMP180;2808;51.240;6.794;2024-02-21T11:54:51;101009.00;;;11.40
5571;BMP180;2808;51.240;6.794;2024-02-21T11:57:22;100988.00;;;11.30
5571;BMP180;2808;51.240;6.794;2024-02-21T11:59:51;100973.00;;;11.20
5571;BMP180;2808;51.240;6.794;2024-02-21T12:02:21;100946.00;;;11.10
5571;BMP180;2808;51.240;6.794;2024-02-21T12:04:48;100927.00;;;11.10
5571;BMP180;2808;51.240;6.794;2024-02-21T12:07:18;100914.00;;;11.10
5571;BMP180;2808;51.240;6.794;2024-02-21T12:09:46;100912.00;;;11.00
5571;BMP180;2808;51.240;6.794;2024-02-21T12:12:13;100912.00;;;11.00
5571;BMP180;2808;51.240;6.794;2024-02-21T12:14:55;100909.00;;;11.10
5571;BMP180;2808;51.240;6.794;2024-02-21T12:17:23;100894.00;;;11.00
5571;BMP180;2808;51.240;6.794;2024-02-21T12:19:51;100899.00;;;11.10
5571;BMP180;2808;51.240;6.794;2024-02-21T12:22:19;100890.00;;;11.10
5571;BMP180;2808;51.240;6.794;2024-02-21T12:24:46;100892.00;;;11.10
5571;BMP180;2808;51.240;6.794;2024-02-21T12:27:14;100916.00;;;11.20
5571;BMP180;2808;51.240;6.794;2024-02-21T12:29:42;100893.00;;;11.30
5571;BMP180;2808;51.240;6.794;2024-02-21T12:32:14;100876.00;;;11.40
5571;BMP180;2808;51.240;6.794;2024-02-21T12:34:41;100851.00;;;11.50
5571;BMP180;2808;51.240;6.794;2024-02-21T12:37:10;100864.00;;;11.60
5571;BMP180;2808;51.240;6.794;2024-02-21T12:39:39;100863.00;;;11.70
5571;BMP180;2808;51.240;6.794;2024-02-21T12:42:06;100869.00;;;11.70
5571;BMP180;2808;51.240;6.794;2024-02-21T12:44:35;100866.00;;;11.70
5571;BMP180;2808;51.240;6.794;2024-02-21T12:47:02;100871.00;;;11.80
5571;BMP180;2808;51.240;6.794;2024-02-21T12:49:31;100857.00;;;11.80
5571;BMP180;2808;51.240;6.794;2024-02-21T12:51:59;100846.00;;;11.80
5571;BMP180;2808;51.240;6.794;2024-02-21T12:54:33;100848.00;;;11.80
5571;BMP180;2808;51.240;6.794;2024-02-21T12:57:02;100835.00;;;11.80
5571;BMP180;2808;51.240;6.794;2024-02-21T12:59:30;100844.00;;;11.80
5571;BMP180;2808;51.240;6.794;2024-02-21T13:01:57;100816.00;;;11.80
5571;BMP180;2808;51.240;6.794;2024-02-21T13:04:26;100808.00;;;11.80
5571;BMP180;2808;51.240;6.794;2024-02-21T13:06:55;100796.00;;;11.80
5571;BMP180;2808;51.240;6.794;2024-02-21T13:09:23;100797.00;;;11.80
5571;BMP180;2808;51.240;6.794;2024-02-21T13:11:50;100783.00;;;11.80
5571;BMP180;2808;51.240;6.794;2024-02-21T13:14:20;100781.00;;;11.90
5571;BMP180;2808;51.240;6.794;2024-02-21T13:16:50;100781.00;;;12.00
5571;BMP180;2808;51.240;6.794;2024-02-21T13:19:18;100782.00;;;12.00
5571;BMP180;2808;51.240;6.794;2024-02-21T13:21:46;100786.00;;;12.10
5571;BMP180;2808;51.240;6.794;2024-02-21T13:24:15;100788.00;;;12.10
5571;BMP180;2808;51.240;6.794;2024-02-21T13:26:42;100784.00;;;12.20
5571;BMP180;2808;51.240;6.794;2024-02-21T13:29:09;100781.00;;;12.20
5571;BMP180;2808;51.240;6.794;2024-02-21T13:31:40;100774.00;;;12.20
5571;BMP180;2808;51.240;6.794;2024-02-21T13:34:08;100754.00;;;12.20
5571;BMP180;2808;51.240;6.794;2024-02-21T13:36:42;100737.00;;;12.20
5571;BMP180;2808;51.240;6.794;2024-02-21T13:39:09;100727.00;;;12.10
5571;BMP180;2808;51.240;6.794;2024-02-21T13:41:40;100726.00;;;12.00
5571;BMP180;2808;51.240;6.794;2024-02-21T13:44:08;100723.00;;;11.90
5571;BMP180;2808;51.240;6.794;2024-02-21T13:46:36;100685.00;;;11.90
5571;BMP180;2808;51.240;6.794;2024-02-21T13:49:04;100677.00;;;12.00
5571;BMP180;2808;51.240;6.794;2024-02-21T13:51:33;100670.00;;;11.90
5571;BMP180;2808;51.240;6.794;2024-02-21T13:54:02;100688.00;;;11.90
5571;BMP180;2808;51.240;6.794;2024-02-21T13:56:31;100674.00;;;11.90
5571;BMP180;2808;51.240;6.794;2024-02-21T13:59:01;100663.00;;;11.90
5571;BMP180;2808;51.240;6.794;2024-02-21T14:01:28;100654.00;;;11.80
5571;BMP180;2808;51.240;6.794;2024-02-21T14:03:55;100668.00;;;11.80
5571;BMP180;2808;51.240;6.794;2024-02-21T14:06:23;100666.00;;;11.80
5571;BMP180;2808;51.240;6.794;2024-02-21T14:08:50;100670.00;;;11.80
5571;BMP180;2808;51.240;6.794;2024-02-21T14:11:19;100671.00;;;11.80
5571;BMP180;2808;51.240;6.794;2024-02-21T14:13:46;100647.00;;;11.80
5571;BMP180;2808;51.240;6.794;2024-02-21T14:16:15;100657.00;;;11.80
5571;BMP180;2808;51.240;6.794;2024-02-21T14:18:41;100656.00;;;11.80
5571;BMP180;2808;51.240;6.794;2024-02-21T14:21:09;100646.00;;;11.90
5571;BMP180;2808;51.240;6.794;2024-02-21T14:23:37;100647.00;;;11.90
5571;BMP180;2808;51.240;6.794;2024-02-21T14:26:05;100630.00;;;11.90
5571;BMP180;2808;51.240;6.794;2024-02-21T14:28:33;100636.00;;;12.00
5571;BMP180;2808;51.240;6.794;2024-02-21T14:31:01;100624.00;;;11.90
5571;BMP180;2808;51.240;6.794;2024-02-21T14:33:31;100625.00;;;11.90
5571;BMP180;2808;51.240;6.794;2024-02-21T14:35:58;100613.00;;;11.90
5571;BMP180;2808;51.240;6.794;2024-02-21T14:38:26;100613.00;;;11.90
5571;BMP180;2808;51.240;6.794;2024-02-21T14:40:53;100596.00;;;11.80